createdAt,value
2022-10-28T00:02:01.169Z,3.47
2022-10-28T00:07:04.997Z,3.80
2022-10-28T00:09:33.487Z,3.70
2022-10-28T00:12:01.923Z,3.20
2022-10-28T00:14:30.314Z,3.40
2022-10-28T00:16:58.334Z,3.40
2022-10-28T00:19:26.374Z,3.63
2022-10-28T00:21:55.769Z,3.60
2022-10-28T00:24:24.257Z,3.50
2022-10-28T00:26:52.291Z,3.15
2022-10-28T00:29:21.512Z,3.50
2022-10-28T00:31:50.895Z,3.33
2022-10-28T00:34:21.283Z,3.78
2022-10-28T00:36:50.133Z,3.38
2022-10-28T00:39:21.384Z,3.28
2022-10-28T00:41:51.465Z,3.10
2022-10-28T00:44:49.564Z,3.03
2022-10-28T00:47:23.885Z,3.25
2022-10-28T00:49:55.597Z,3.17
2022-10-28T00:52:27.608Z,3.33
2022-10-28T00:54:58.679Z,3.60
2022-10-28T00:57:31.955Z,2.90
2022-10-28T01:00:02.759Z,2.88
2022-10-28T01:02:31.243Z,2.88
2022-10-28T01:05:00.154Z,2.83
2022-10-28T01:07:28.535Z,2.88
2022-10-28T01:09:58.158Z,3.50
2022-10-28T01:12:34.380Z,2.92
2022-10-28T01:15:10.763Z,2.83
2022-10-28T01:17:51.069Z,2.95
2022-10-28T01:21:01.680Z,2.88
2022-10-28T01:23:36.479Z,2.63
2022-10-28T01:26:32.243Z,2.90
2022-10-28T01:29:30.815Z,2.72
2022-10-28T01:32:06.062Z,2.72
2022-10-28T01:34:39.810Z,3.03
2022-10-28T01:37:15.307Z,2.80
2022-10-28T01:39:48.246Z,2.58
2022-10-28T01:42:27.630Z,2.65
2022-10-28T01:45:03.609Z,2.50
2022-10-28T01:47:38.547Z,2.90
2022-10-28T01:50:10.440Z,3.07
2022-10-28T01:52:41.524Z,2.78
2022-10-28T01:55:14.934Z,2.45
2022-10-28T01:57:44.444Z,2.67
2022-10-28T02:00:13.631Z,2.60
2022-10-28T02:02:43.872Z,2.50
2022-10-28T02:05:41.443Z,2.50
2022-10-28T02:08:28.983Z,2.42
2022-10-28T02:11:10.739Z,2.80
2022-10-28T02:13:47.756Z,2.80
2022-10-28T02:16:23.945Z,2.40
2022-10-28T02:19:03.143Z,2.45
2022-10-28T02:21:41.498Z,2.42
2022-10-28T02:24:17.317Z,2.65
2022-10-28T02:26:53.011Z,2.50
2022-10-28T02:29:29.106Z,3.13
2022-10-28T02:32:00.829Z,2.55
2022-10-28T02:34:33.049Z,3.05
2022-10-28T02:37:04.751Z,2.55
2022-10-28T02:39:40.634Z,2.60
2022-10-28T02:42:14.088Z,2.40
2022-10-28T02:44:49.669Z,2.42
2022-10-28T02:47:21.244Z,2.88
2022-10-28T02:49:54.455Z,2.65
2022-10-28T02:52:25.717Z,3.00
2022-10-28T02:54:56.936Z,2.30
2022-10-28T02:57:27.358Z,2.85
2022-10-28T02:59:56.145Z,3.28
2022-10-28T03:02:25.336Z,2.50
2022-10-28T03:04:55.021Z,2.75
2022-10-28T03:07:23.425Z,2.70
2022-10-28T03:09:52.256Z,2.80
2022-10-28T03:12:20.666Z,2.60
2022-10-28T03:14:48.996Z,2.28
2022-10-28T03:17:17.373Z,2.40
2022-10-28T03:19:45.539Z,2.73
2022-10-28T03:22:14.967Z,2.80
2022-10-28T03:24:43.410Z,2.47
2022-10-28T03:27:12.012Z,3.00
2022-10-28T03:29:44.859Z,2.65
2022-10-28T03:32:14.578Z,2.60
2022-10-28T03:34:42.989Z,3.33
2022-10-28T03:37:11.453Z,2.85
2022-10-28T03:39:40.991Z,2.95
2022-10-28T03:42:09.381Z,3.15
2022-10-28T03:44:37.430Z,3.00
2022-10-28T03:47:05.888Z,2.50
2022-10-28T03:49:34.295Z,2.70
2022-10-28T03:52:03.363Z,3.40
2022-10-28T03:54:31.695Z,2.78
2022-10-28T03:57:01.211Z,2.73
2022-10-28T03:59:29.254Z,3.08
2022-10-28T04:01:57.696Z,3.25
2022-10-28T04:04:29.844Z,3.10
2022-10-28T04:06:59.088Z,3.03
2022-10-28T04:09:27.487Z,3.20
2022-10-28T04:11:55.897Z,3.17
2022-10-28T04:14:25.365Z,3.03
2022-10-28T04:16:53.746Z,3.30
2022-10-28T04:19:22.128Z,3.08
2022-10-28T04:21:50.497Z,2.77
2022-10-28T04:24:18.650Z,3.17
2022-10-28T04:26:47.061Z,3.42
2022-10-28T04:29:15.867Z,3.22
2022-10-28T04:31:48.668Z,3.35
2022-10-28T04:34:20.115Z,3.70
2022-10-28T04:36:51.456Z,3.13
2022-10-28T04:39:23.109Z,3.65
2022-10-28T04:41:52.005Z,3.35
2022-10-28T04:44:20.896Z,3.33
2022-10-28T04:46:51.131Z,2.97
2022-10-28T04:49:20.208Z,3.30
2022-10-28T04:51:55.459Z,2.97
2022-10-28T04:54:24.352Z,3.47
2022-10-28T04:56:55.795Z,2.80
2022-10-28T04:59:24.680Z,2.80
2022-10-28T05:01:54.902Z,2.58
2022-10-28T05:04:26.659Z,2.55
2022-10-28T05:06:55.451Z,2.65
2022-10-28T05:09:24.158Z,2.80
2022-10-28T05:11:54.971Z,2.80
2022-10-28T05:14:23.661Z,2.90
2022-10-28T05:16:52.661Z,2.70
2022-10-28T05:19:27.398Z,3.00
2022-10-28T05:21:56.082Z,2.88
2022-10-28T05:24:24.856Z,2.90
2022-10-28T05:26:55.794Z,3.00
2022-10-28T05:29:24.546Z,3.03
2022-10-28T05:31:53.098Z,2.92
2022-10-28T05:34:22.611Z,2.80
2022-10-28T05:36:51.341Z,2.67
2022-10-28T05:39:19.857Z,2.75
2022-10-28T05:41:48.195Z,2.90
2022-10-28T05:44:16.593Z,2.92
2022-10-28T05:46:44.947Z,2.80
2022-10-28T05:49:12.920Z,3.03
2022-10-28T05:51:42.377Z,3.38
2022-10-28T05:54:10.834Z,2.45
2022-10-28T05:56:39.287Z,3.10
2022-10-28T05:59:07.340Z,3.17
2022-10-28T06:01:35.798Z,3.27
2022-10-28T06:04:04.775Z,2.90
2022-10-28T06:06:33.225Z,2.90
2022-10-28T06:09:02.707Z,3.25
2022-10-28T06:11:29.595Z,3.03
2022-10-28T06:13:57.727Z,2.93
2022-10-28T06:16:26.160Z,3.00
2022-10-28T06:18:54.570Z,2.80
2022-10-28T06:21:23.001Z,3.17
2022-10-28T06:23:51.599Z,3.22
2022-10-28T06:26:21.043Z,2.60
2022-10-28T06:28:49.640Z,2.88
2022-10-28T06:31:18.081Z,2.75
2022-10-28T06:33:46.182Z,2.55
2022-10-28T06:36:14.704Z,2.72
2022-10-28T06:38:43.338Z,3.10
2022-10-28T06:41:11.819Z,2.80
2022-10-28T06:43:41.409Z,2.58
2022-10-28T06:46:09.900Z,2.53
2022-10-28T06:48:39.897Z,2.83
2022-10-28T06:51:08.456Z,3.50
2022-10-28T06:53:37.651Z,2.58
2022-10-28T06:56:06.584Z,3.33
2022-10-28T06:58:35.179Z,2.92
2022-10-28T07:01:06.636Z,2.85
2022-10-28T07:03:35.533Z,3.03
2022-10-28T07:06:05.450Z,2.47
2022-10-28T07:08:33.918Z,3.17
2022-10-28T07:11:07.041Z,4.25
2022-10-28T07:13:35.471Z,6.60
2022-10-28T07:16:05.352Z,6.83
2022-10-28T07:18:34.941Z,6.70
2022-10-28T07:21:03.587Z,7.65
2022-10-28T07:23:34.980Z,6.38
2022-10-28T07:26:05.206Z,5.90
2022-10-28T07:28:34.248Z,6.27
2022-10-28T07:31:03.106Z,5.22
2022-10-28T07:33:31.750Z,3.80
2022-10-28T07:36:04.458Z,3.40
2022-10-28T07:38:33.129Z,3.22
2022-10-28T07:41:05.462Z,3.40
2022-10-28T07:43:34.046Z,4.03
2022-10-28T07:46:09.746Z,2.72
2022-10-28T07:48:41.304Z,2.45
2022-10-28T07:51:14.940Z,2.63
2022-10-28T07:53:43.769Z,2.23
2022-10-28T07:56:14.454Z,2.45
2022-10-28T07:58:46.261Z,2.10
2022-10-28T08:01:17.533Z,2.10
2022-10-28T08:03:47.639Z,1.83
2022-10-28T08:06:26.212Z,2.30
2022-10-28T08:08:56.325Z,2.20
2022-10-28T08:11:29.730Z,2.42
2022-10-28T08:13:58.197Z,2.33
2022-10-28T08:16:29.056Z,2.40
2022-10-28T08:18:57.837Z,1.77
2022-10-28T08:21:27.391Z,2.63
2022-10-28T08:23:55.972Z,1.98
2022-10-28T08:26:25.022Z,2.70
2022-10-28T08:28:53.370Z,2.35
2022-10-28T08:31:21.749Z,2.33
2022-10-28T08:33:50.323Z,2.50
2022-10-28T08:36:20.396Z,3.30
2022-10-28T08:38:49.861Z,2.83
2022-10-28T08:41:29.855Z,2.50
2022-10-28T08:44:21.995Z,2.77
2022-10-28T08:47:01.406Z,2.58
2022-10-28T08:49:34.265Z,2.50
2022-10-28T08:52:08.906Z,2.38
2022-10-28T08:54:47.322Z,2.65
2022-10-28T08:57:20.168Z,2.60
2022-10-28T08:59:51.997Z,2.67
2022-10-28T09:02:23.574Z,2.83
2022-10-28T09:04:57.684Z,3.75
2022-10-28T09:07:27.980Z,3.38
2022-10-28T09:10:02.571Z,2.70
2022-10-28T09:12:43.318Z,2.72
2022-10-28T09:15:27.215Z,2.90
2022-10-28T09:18:00.252Z,3.03
2022-10-28T09:20:40.270Z,2.60
2022-10-28T09:23:17.229Z,2.87
2022-10-28T09:25:56.476Z,3.20
2022-10-28T09:28:40.904Z,1.88
2022-10-28T09:31:15.810Z,2.17
2022-10-28T09:34:02.128Z,2.15
2022-10-28T09:36:46.899Z,1.93
2022-10-28T09:40:14.579Z,2.05
2022-10-28T09:42:50.804Z,2.30
2022-10-28T09:45:25.187Z,1.95
2022-10-28T09:47:59.543Z,2.05
2022-10-28T09:50:31.432Z,1.97
2022-10-28T09:53:06.604Z,2.08
2022-10-28T09:55:35.211Z,2.15
2022-10-28T09:58:06.426Z,2.03
2022-10-28T10:00:34.939Z,2.25
2022-10-28T10:03:03.440Z,2.13
2022-10-28T10:05:34.267Z,2.30
2022-10-28T10:08:05.773Z,1.75
2022-10-28T10:10:39.018Z,1.88
2022-10-28T10:13:09.439Z,1.80
2022-10-28T10:15:41.019Z,1.93
2022-10-28T10:18:16.826Z,2.20
2022-10-28T10:20:52.856Z,2.22
2022-10-28T10:23:29.048Z,2.10
2022-10-28T10:26:06.669Z,2.05
2022-10-28T10:28:42.869Z,1.93
2022-10-28T10:31:19.486Z,2.58
2022-10-28T10:33:51.036Z,2.10
2022-10-28T10:36:23.728Z,2.00
2022-10-28T10:38:54.100Z,1.80
2022-10-28T10:41:35.738Z,2.37
2022-10-28T10:44:26.330Z,1.77
2022-10-28T10:47:19.407Z,2.10
2022-10-28T10:49:49.822Z,1.95
2022-10-28T10:52:30.240Z,1.98
2022-10-28T10:55:02.818Z,1.60
2022-10-28T10:57:31.637Z,1.70
2022-10-28T11:00:01.435Z,1.52
2022-10-28T11:02:33.648Z,1.52
2022-10-28T11:05:05.354Z,1.98
2022-10-28T11:07:34.751Z,1.70
2022-10-28T11:10:03.582Z,1.70
2022-10-28T11:12:35.232Z,1.65
2022-10-28T11:15:21.544Z,1.60
2022-10-28T11:17:57.796Z,1.52
2022-10-28T11:20:30.982Z,1.57
2022-10-28T11:23:22.015Z,1.30
2022-10-28T11:25:52.552Z,1.88
2022-10-28T11:28:36.057Z,1.80
2022-10-28T11:31:24.359Z,1.60
2022-10-28T11:34:10.718Z,2.27
2022-10-28T11:36:46.494Z,2.05
2022-10-28T11:39:21.811Z,1.60
2022-10-28T11:42:06.032Z,2.17
2022-10-28T11:44:45.058Z,2.10
2022-10-28T11:47:41.030Z,2.20
2022-10-28T11:50:23.831Z,2.00
2022-10-28T11:53:06.114Z,1.90
2022-10-28T11:55:40.043Z,2.20
2022-10-28T11:58:16.949Z,2.03
2022-10-28T12:00:55.734Z,2.03
2022-10-28T12:03:44.299Z,2.20
2022-10-28T12:06:19.640Z,2.20
2022-10-28T12:09:04.162Z,1.98
2022-10-28T12:11:44.760Z,2.50
2022-10-28T12:14:19.100Z,2.30
2022-10-28T12:16:55.556Z,2.25
2022-10-28T12:19:29.994Z,2.60
2022-10-28T12:22:05.874Z,2.53
2022-10-28T12:24:38.630Z,2.55
2022-10-28T12:27:17.191Z,2.80
2022-10-28T12:29:50.029Z,3.05
2022-10-28T12:32:23.582Z,2.40
2022-10-28T12:35:00.453Z,2.88
2022-10-28T12:37:56.042Z,2.80
2022-10-28T12:40:29.367Z,2.37
2022-10-28T12:43:01.923Z,2.38
2022-10-28T12:45:33.193Z,2.80
2022-10-28T12:48:09.271Z,2.25
2022-10-28T12:50:45.648Z,2.10
2022-10-28T12:53:29.744Z,2.20
2022-10-28T12:56:00.284Z,2.20
2022-10-28T12:58:33.671Z,2.25
2022-10-28T13:01:04.314Z,1.70
2022-10-28T13:03:33.156Z,2.00
2022-10-28T13:06:23.109Z,1.70
2022-10-28T13:09:13.354Z,1.50
2022-10-28T13:12:16.789Z,1.70
2022-10-28T13:15:12.902Z,1.63
2022-10-28T13:17:53.287Z,1.80
2022-10-28T13:20:32.333Z,1.80
2022-10-28T13:23:11.567Z,1.85
2022-10-28T13:26:10.955Z,1.80
2022-10-28T13:28:47.225Z,1.35
2022-10-28T13:31:15.805Z,1.45
2022-10-28T13:33:52.611Z,1.70
2022-10-28T13:36:26.009Z,1.95
2022-10-28T13:38:59.656Z,1.40
2022-10-28T13:41:32.218Z,1.70
2022-10-28T13:44:16.733Z,1.10
2022-10-28T13:47:19.123Z,2.00
2022-10-28T13:50:25.867Z,1.70
2022-10-28T13:53:44.659Z,1.83
2022-10-28T13:56:44.596Z,1.67
2022-10-28T13:59:29.369Z,1.90
2022-10-28T14:02:33.384Z,1.70
2022-10-28T14:04:59.808Z,1.60
2022-10-28T14:07:31.422Z,1.70
2022-10-28T14:10:17.591Z,1.73
2022-10-28T14:12:53.888Z,1.70
2022-10-28T14:15:28.203Z,1.30
2022-10-28T14:18:10.476Z,2.10
2022-10-28T14:21:00.683Z,1.98
2022-10-28T14:24:16.949Z,1.80
2022-10-28T14:27:31.086Z,2.03
2022-10-28T14:30:30.561Z,1.87
2022-10-28T14:33:23.105Z,1.80
2022-10-28T14:36:00.926Z,2.63
2022-10-28T14:38:54.851Z,2.50
2022-10-28T14:41:53.368Z,2.20
2022-10-28T14:44:40.503Z,2.53
2022-10-28T14:47:29.390Z,3.65
2022-10-28T14:50:02.870Z,3.10
2022-10-28T14:52:35.281Z,3.28
2022-10-28T14:55:06.402Z,3.30
2022-10-28T14:57:35.850Z,4.27
2022-10-28T15:00:07.649Z,3.60
2022-10-28T15:02:39.034Z,4.65
2022-10-28T15:05:18.354Z,5.20
2022-10-28T15:07:50.786Z,3.65
2022-10-28T15:10:21.020Z,3.50
2022-10-28T15:12:51.424Z,3.83
2022-10-28T15:15:21.821Z,3.70
2022-10-28T15:17:51.744Z,3.05
2022-10-28T15:20:27.460Z,2.88
2022-10-28T15:23:12.647Z,2.97
2022-10-28T15:25:41.652Z,2.33
2022-10-28T15:28:13.636Z,2.05
2022-10-28T15:30:46.760Z,2.58
2022-10-28T15:33:30.784Z,2.50
2022-10-28T15:36:18.085Z,2.20
2022-10-28T15:38:47.839Z,2.85
2022-10-28T15:41:52.483Z,2.35
2022-10-28T15:44:31.222Z,2.80
2022-10-28T15:47:13.321Z,2.22
2022-10-28T15:49:42.833Z,2.63
2022-10-28T15:52:40.864Z,2.45
2022-10-28T15:55:35.790Z,2.13
2022-10-28T15:58:35.724Z,2.53
2022-10-28T16:01:05.036Z,2.28
2022-10-28T16:03:43.754Z,2.60
2022-10-28T16:06:27.971Z,3.63
2022-10-28T16:09:13.629Z,3.00
2022-10-28T16:11:46.074Z,3.13
2022-10-28T16:14:34.799Z,2.90
2022-10-28T16:17:16.535Z,2.63
2022-10-28T16:19:51.013Z,3.22
2022-10-28T16:22:25.759Z,2.67
2022-10-28T16:24:54.979Z,2.47
2022-10-28T16:27:24.733Z,2.88
2022-10-28T16:29:53.454Z,3.00
2022-10-28T16:32:26.743Z,3.25
2022-10-28T16:34:54.905Z,2.90
2022-10-28T16:37:27.001Z,2.90
2022-10-28T16:39:55.893Z,3.15
2022-10-28T16:42:25.153Z,3.20
2022-10-28T16:44:53.850Z,2.90
2022-10-28T16:47:25.539Z,3.58
2022-10-28T16:50:00.112Z,4.50
2022-10-28T16:52:32.080Z,3.83
2022-10-28T16:55:00.371Z,3.87
2022-10-28T16:57:28.982Z,4.30
2022-10-28T16:59:57.220Z,4.25
2022-10-28T17:02:29.271Z,4.40
2022-10-28T17:04:58.277Z,3.85
2022-10-28T17:07:26.555Z,4.53
2022-10-28T17:09:56.914Z,4.35
2022-10-28T17:12:27.188Z,4.07
2022-10-28T17:14:55.399Z,4.63
2022-10-28T17:17:23.602Z,4.30
2022-10-28T17:19:51.664Z,3.73
2022-10-28T17:22:19.799Z,4.50
2022-10-28T17:24:47.957Z,4.47
2022-10-28T17:27:17.388Z,6.47
2022-10-28T17:29:45.821Z,7.82
2022-10-28T17:32:14.456Z,7.37
2022-10-28T17:34:42.575Z,7.13
2022-10-28T17:37:11.305Z,6.32
2022-10-28T17:39:39.718Z,8.32
2022-10-28T17:42:07.829Z,10.20
2022-10-28T17:44:37.779Z,9.87
2022-10-28T17:47:06.358Z,8.88
2022-10-28T17:49:37.079Z,9.50
2022-10-28T17:52:05.810Z,8.68
2022-10-28T17:54:35.874Z,8.60
2022-10-28T17:57:04.286Z,7.57
2022-10-28T17:59:32.506Z,7.38
2022-10-28T18:02:02.146Z,7.10
2022-10-28T18:04:30.733Z,6.18
2022-10-28T18:07:00.838Z,6.80
2022-10-28T18:09:31.718Z,6.57
2022-10-28T18:12:01.962Z,6.45
2022-10-28T18:14:30.817Z,5.85
2022-10-28T18:16:59.695Z,6.43
2022-10-28T18:19:29.401Z,5.85
2022-10-28T18:21:57.529Z,7.63
2022-10-28T18:24:26.402Z,6.00
2022-10-28T18:26:57.142Z,6.03
2022-10-28T18:29:25.776Z,5.78
2022-10-28T18:31:53.996Z,6.07
2022-10-28T18:34:23.783Z,5.60
2022-10-28T18:36:53.539Z,6.47
2022-10-28T18:39:24.486Z,6.55
2022-10-28T18:41:52.954Z,6.97
2022-10-28T18:44:27.012Z,10.00
2022-10-28T18:46:57.275Z,7.70
2022-10-28T18:49:29.054Z,8.88
2022-10-28T18:51:59.669Z,8.25
2022-10-28T18:54:28.198Z,8.07
2022-10-28T18:56:57.730Z,8.50
2022-10-28T18:59:32.890Z,9.23
2022-10-28T19:02:01.566Z,8.90
2022-10-28T19:04:30.128Z,8.60
2022-10-28T19:07:01.982Z,9.10
2022-10-28T19:09:30.660Z,9.40
2022-10-28T19:11:59.113Z,8.83
2022-10-28T19:14:27.563Z,8.25
2022-10-28T19:17:19.020Z,6.95
2022-10-28T19:19:53.738Z,6.70
2022-10-28T19:22:23.501Z,7.03
2022-10-28T19:24:52.113Z,8.07
2022-10-28T19:27:20.560Z,8.50
2022-10-28T19:29:49.076Z,9.13
2022-10-28T19:32:17.228Z,7.97
2022-10-28T19:34:45.676Z,8.07
2022-10-28T19:37:13.798Z,8.00
2022-10-28T19:39:43.358Z,7.70
2022-10-28T19:42:11.796Z,7.07
2022-10-28T19:44:40.342Z,7.03
2022-10-28T19:47:09.022Z,7.90
2022-10-28T19:49:44.346Z,7.17
2022-10-28T19:52:12.937Z,7.18
2022-10-28T19:54:41.417Z,7.25
2022-10-28T19:57:11.118Z,6.70
2022-10-28T19:59:39.564Z,6.20
2022-10-28T20:02:12.976Z,5.90
2022-10-28T20:04:41.745Z,5.95
2022-10-28T20:07:10.166Z,5.38
2022-10-28T20:09:38.649Z,5.65
2022-10-28T20:12:07.292Z,38.88
2022-10-28T20:14:39.140Z,20.53
2022-10-28T20:17:10.566Z,37.40
2022-10-28T20:19:39.018Z,14.60
2022-10-28T20:22:07.383Z,23.88
2022-10-28T20:24:35.487Z,24.95
2022-10-28T20:27:03.919Z,27.50
2022-10-28T20:29:32.315Z,55.28
2022-10-28T20:32:01.722Z,13.65
2022-10-28T20:34:30.086Z,7.78
2022-10-28T20:36:58.466Z,6.13
2022-10-28T20:39:28.994Z,6.03
2022-10-28T20:41:57.405Z,5.78
2022-10-28T20:44:27.941Z,6.10
2022-10-28T20:46:56.437Z,6.50
2022-10-28T20:49:25.821Z,6.25
2022-10-28T20:51:55.200Z,22.03
2022-10-28T20:54:29.821Z,20.02
2022-10-28T20:57:02.458Z,9.23
2022-10-28T20:59:30.854Z,15.30
2022-10-28T21:01:59.120Z,15.90
2022-10-28T21:04:30.102Z,22.40
2022-10-28T21:06:58.694Z,10.45
2022-10-28T21:09:27.106Z,5.68
2022-10-28T21:11:55.199Z,22.05
2022-10-28T21:14:26.404Z,6.93
2022-10-28T21:16:55.192Z,5.00
2022-10-28T21:19:23.674Z,5.03
2022-10-28T21:21:54.311Z,4.97
2022-10-28T21:24:22.865Z,5.05
2022-10-28T21:26:54.190Z,12.07
2022-10-28T21:29:22.714Z,11.40
2022-10-28T21:31:51.218Z,5.93
2022-10-28T21:34:19.416Z,8.50
2022-10-28T21:36:47.958Z,10.65
2022-10-28T21:39:25.138Z,23.70
2022-10-28T21:41:53.223Z,20.50
2022-10-28T21:44:21.734Z,18.15
2022-10-28T21:46:51.725Z,8.90
2022-10-28T21:49:19.797Z,5.30
2022-10-28T21:51:48.153Z,4.65
2022-10-28T21:54:18.771Z,23.03
2022-10-28T21:56:46.926Z,26.42
2022-10-28T21:59:15.587Z,24.90
2022-10-28T22:01:44.054Z,20.02
2022-10-28T22:04:18.408Z,6.57
2022-10-28T22:09:17.360Z,5.15
2022-10-28T22:11:45.968Z,4.90
2022-10-28T22:14:14.279Z,4.97
2022-10-28T22:16:42.858Z,4.53
2022-10-28T22:19:14.423Z,4.83
2022-10-28T22:21:43.490Z,5.45
2022-10-28T22:24:11.600Z,5.18
2022-10-28T22:26:41.053Z,4.90
2022-10-28T22:29:09.500Z,4.82
2022-10-28T22:31:37.599Z,4.90
2022-10-28T22:34:06.382Z,5.93
2022-10-28T22:36:34.518Z,5.90
2022-10-28T22:39:04.598Z,4.57
2022-10-28T22:41:33.755Z,4.68
2022-10-28T22:44:04.702Z,4.67
2022-10-28T22:46:36.461Z,5.05
2022-10-28T22:49:05.441Z,4.40
2022-10-28T22:51:33.832Z,4.80
2022-10-28T22:54:02.219Z,5.03
2022-10-28T22:56:30.685Z,4.23
2022-10-28T22:59:01.216Z,4.60
2022-10-28T23:01:31.213Z,4.65
2022-10-28T23:04:00.941Z,4.53
2022-10-28T23:06:30.212Z,4.57
2022-10-28T23:08:58.928Z,4.73
2022-10-28T23:11:27.306Z,4.60
2022-10-28T23:13:56.767Z,4.60
2022-10-28T23:16:25.610Z,4.80
2022-10-28T23:18:55.235Z,5.25
2022-10-28T23:21:24.721Z,4.57
2022-10-28T23:23:56.271Z,4.30
2022-10-28T23:26:25.456Z,4.50
2022-10-28T23:28:54.788Z,4.63
2022-10-28T23:31:31.821Z,4.40
2022-10-28T23:34:01.537Z,4.33
2022-10-28T23:36:29.951Z,4.20
2022-10-28T23:38:58.201Z,4.45
2022-10-28T23:41:26.709Z,4.50
2022-10-28T23:43:55.077Z,4.20
2022-10-28T23:46:23.684Z,4.03
2022-10-28T23:48:52.084Z,4.55
2022-10-28T23:51:21.548Z,3.90
2022-10-28T23:53:50.173Z,4.70
2022-10-28T23:56:18.587Z,4.72
2022-10-28T23:58:46.995Z,4.10
